MPH912 KMCO-KMEM
Flight info
| Callsign | MPH912 |
|---|---|
| Flight time | N/A |
| Altitude | 34000 |
| Route | RDSOX1 JFRYS PATOY Q116 GOOGY WASER VANZE3 |
| Aircraft | MD11/H-SDE1E2E3FGHIJ2J3J4J5M1RWXY/LB1D1 |
Departure
| Time | 2026-04-24 21:09 |
|---|---|
| Airport | Orlando International Airport (KMCO) |
Arrival
| Time | N/A |
|---|---|
| Airport | Memphis International Airport (KMEM) |
| Time | Latitude | Longitude | Altitude | Speed | Heading |
|---|---|---|---|---|---|
| 2026-04-24 20:53 | 28.43118 | -81.33030 | 116 ft | 0 kts | 359° |
| 2026-04-24 21:04 | 28.43131 | -81.33027 | 114 ft | 5 kts | 15° |
| 2026-04-24 21:05 | 28.43199 | -81.32994 | 116 ft | 16 kts | 23° |
| 2026-04-24 21:05 | 28.43346 | -81.32947 | 114 ft | 28 kts | 10° |
| 2026-04-24 21:05 | 28.43569 | -81.32928 | 113 ft | 37 kts | 1° |
| 2026-04-24 21:05 | 28.43825 | -81.32931 | 109 ft | 35 kts | 359° |
| 2026-04-24 21:06 | 28.44049 | -81.32889 | 110 ft | 32 kts | 18° |
| 2026-04-24 21:06 | 28.44256 | -81.32862 | 110 ft | 28 kts | 359° |
| 2026-04-24 21:06 | 28.44433 | -81.32864 | 113 ft | 23 kts | 359° |
| 2026-04-24 21:06 | 28.44588 | -81.32867 | 114 ft | 22 kts | 359° |
| 2026-04-24 21:07 | 28.44745 | -81.32870 | 116 ft | 21 kts | 359° |
| 2026-04-24 21:07 | 28.44810 | -81.32829 | 115 ft | 0 kts | 70° |
| 2026-04-24 21:07 | 28.44810 | -81.32827 | 116 ft | 0 kts | 70° |
| 2026-04-24 21:07 | 28.44810 | -81.32826 | 116 ft | 1 kts | 72° |
| 2026-04-24 21:08 | 28.44815 | -81.32768 | 118 ft | 14 kts | 88° |
| 2026-04-24 21:08 | 28.44798 | -81.32702 | 114 ft | 3 kts | 144° |
| 2026-04-24 21:08 | 28.44778 | -81.32698 | 114 ft | 1 kts | 176° |
| 2026-04-24 21:08 | 28.44669 | -81.32696 | 116 ft | 50 kts | 180° |
| 2026-04-24 21:09 | 28.44026 | -81.32690 | 110 ft | 134 kts | 179° |
| 2026-04-24 21:09 | 28.42852 | -81.32676 | 133 ft | 194 kts | 181° |
| 2026-04-24 21:09 | 28.41551 | -81.32645 | 534 ft | 199 kts | 179° |
| 2026-04-24 21:09 | 28.40212 | -81.32598 | 855 ft | 191 kts | 179° |
| 2026-04-24 21:10 | 28.38874 | -81.32562 | 1061 ft | 192 kts | 178° |
| 2026-04-24 21:10 | 28.37454 | -81.32524 | 1424 ft | 218 kts | 177° |
| 2026-04-24 21:10 | 28.35902 | -81.32468 | 2259 ft | 225 kts | 178° |
| 2026-04-24 21:10 | 28.34312 | -81.32474 | 2900 ft | 227 kts | 180° |
| 2026-04-24 21:11 | 28.32691 | -81.32569 | 3374 ft | 243 kts | 192° |
| 2026-04-24 21:11 | 28.31136 | -81.33458 | 3672 ft | 261 kts | 223° |
| 2026-04-24 21:11 | 28.30136 | -81.35164 | 4399 ft | 264 kts | 251° |
| 2026-04-24 21:11 | 28.29955 | -81.37243 | 5175 ft | 266 kts | 279° |
| 2026-04-24 21:12 | 28.30555 | -81.39222 | 5911 ft | 269 kts | 295° |
| 2026-04-24 21:12 | 28.31401 | -81.41114 | 6669 ft | 271 kts | 297° |
| 2026-04-24 21:12 | 28.32268 | -81.43007 | 7405 ft | 272 kts | 297° |
| 2026-04-24 21:12 | 28.33147 | -81.44925 | 8168 ft | 275 kts | 297° |
| 2026-04-24 21:13 | 28.34036 | -81.46867 | 8951 ft | 276 kts | 297° |
| 2026-04-24 21:13 | 28.34917 | -81.48789 | 9738 ft | 277 kts | 297° |
| 2026-04-24 21:13 | 28.35818 | -81.50757 | 10449 ft | 280 kts | 297° |
| 2026-04-24 21:13 | 28.36668 | -81.52732 | 11123 ft | 282 kts | 294° |
| 2026-04-24 21:14 | 28.37388 | -81.54810 | 11815 ft | 285 kts | 289° |
| 2026-04-24 21:14 | 28.37974 | -81.56977 | 12523 ft | 287 kts | 285° |
| 2026-04-24 21:14 | 28.38452 | -81.59191 | 13224 ft | 291 kts | 283° |
| 2026-04-24 21:14 | 28.38861 | -81.61470 | 13903 ft | 294 kts | 281° |
| 2026-04-24 21:15 | 28.39214 | -81.63741 | 14531 ft | 296 kts | 280° |
| 2026-04-24 21:15 | 28.39547 | -81.66108 | 14842 ft | 313 kts | 279° |
| 2026-04-24 21:15 | 28.39877 | -81.68637 | 14974 ft | 334 kts | 279° |
| 2026-04-24 21:15 | 28.40208 | -81.71320 | 15098 ft | 354 kts | 278° |
| 2026-04-24 21:16 | 28.40546 | -81.74155 | 15260 ft | 371 kts | 278° |
| 2026-04-24 21:16 | 28.40888 | -81.77110 | 15850 ft | 375 kts | 278° |
| 2026-04-24 21:16 | 28.41223 | -81.80050 | 16475 ft | 378 kts | 278° |
| 2026-04-24 21:16 | 28.41557 | -81.83007 | 17094 ft | 381 kts | 278° |
| 2026-04-24 21:17 | 28.42206 | -81.85953 | 17656 ft | 382 kts | 294° |
| 2026-04-24 21:17 | 28.43598 | -81.88521 | 18276 ft | 385 kts | 311° |
| 2026-04-24 21:17 | 28.45621 | -81.90505 | 18766 ft | 390 kts | 327° |
| 2026-04-24 21:17 | 28.48052 | -81.91929 | 19239 ft | 395 kts | 334° |
| 2026-04-24 21:18 | 28.50528 | -81.93247 | 19743 ft | 397 kts | 331° |
| 2026-04-24 21:18 | 28.52975 | -81.94784 | 20255 ft | 400 kts | 327° |
| 2026-04-24 21:18 | 28.55285 | -81.96518 | 20753 ft | 402 kts | 323° |
| 2026-04-24 21:18 | 28.57547 | -81.98442 | 21267 ft | 404 kts | 321° |
| 2026-04-24 21:19 | 28.59722 | -82.00436 | 21765 ft | 407 kts | 319° |
| 2026-04-24 21:19 | 28.61926 | -82.02539 | 22263 ft | 410 kts | 318° |
| 2026-04-24 21:19 | 28.64076 | -82.04628 | 22753 ft | 413 kts | 318° |
| 2026-04-24 21:19 | 28.66280 | -82.06784 | 23246 ft | 416 kts | 318° |
| 2026-04-24 21:20 | 28.70687 | -82.11103 | 24098 ft | 421 kts | 318° |
| 2026-04-24 21:20 | 28.72933 | -82.13303 | 24517 ft | 424 kts | 318° |
| 2026-04-24 21:20 | 28.75169 | -82.15493 | 24913 ft | 426 kts | 318° |
| 2026-04-24 21:21 | 28.77420 | -82.17697 | 25347 ft | 428 kts | 318° |
| 2026-04-24 21:21 | 28.79688 | -82.19919 | 25730 ft | 431 kts | 318° |
| 2026-04-24 21:21 | 28.81968 | -82.22154 | 26132 ft | 433 kts | 318° |
| 2026-04-24 21:21 | 28.84252 | -82.24394 | 26525 ft | 435 kts | 318° |
| 2026-04-24 21:22 | 28.86571 | -82.26669 | 26896 ft | 438 kts | 318° |
| 2026-04-24 21:22 | 28.88866 | -82.28923 | 27267 ft | 440 kts | 318° |
| 2026-04-24 21:22 | 28.91184 | -82.31200 | 27631 ft | 442 kts | 318° |
| 2026-04-24 21:22 | 28.93542 | -82.33518 | 28012 ft | 445 kts | 318° |
| 2026-04-24 21:23 | 28.95873 | -82.35811 | 28393 ft | 447 kts | 318° |
| 2026-04-24 21:23 | 28.98242 | -82.38143 | 28740 ft | 449 kts | 318° |
| 2026-04-24 21:23 | 29.00596 | -82.40462 | 29118 ft | 452 kts | 318° |
| 2026-04-24 21:23 | 29.02993 | -82.42824 | 29468 ft | 454 kts | 318° |
| 2026-04-24 21:24 | 29.05390 | -82.45194 | 29824 ft | 456 kts | 318° |
| 2026-04-24 21:24 | 29.07793 | -82.47577 | 30152 ft | 459 kts | 318° |
| 2026-04-24 21:24 | 29.10209 | -82.49972 | 30482 ft | 460 kts | 317° |
| 2026-04-24 21:24 | 29.12630 | -82.52370 | 30803 ft | 461 kts | 318° |
| 2026-04-24 21:25 | 29.15059 | -82.54775 | 31139 ft | 461 kts | 317° |
| 2026-04-24 21:25 | 29.17484 | -82.57175 | 31509 ft | 459 kts | 317° |
| 2026-04-24 21:25 | 29.19895 | -82.59562 | 31884 ft | 457 kts | 317° |
| 2026-04-24 21:25 | 29.22301 | -82.61944 | 32256 ft | 456 kts | 317° |
| 2026-04-24 21:26 | 29.24672 | -82.64295 | 32614 ft | 454 kts | 317° |
| 2026-04-24 21:26 | 29.27055 | -82.66658 | 32963 ft | 452 kts | 317° |
| 2026-04-24 21:26 | 29.29429 | -82.69014 | 33292 ft | 450 kts | 317° |
| 2026-04-24 21:26 | 29.31785 | -82.71354 | 33633 ft | 449 kts | 317° |
| 2026-04-24 21:27 | 29.34149 | -82.73704 | 33916 ft | 448 kts | 317° |
| 2026-04-24 21:27 | 29.38885 | -82.78417 | 33993 ft | 452 kts | 317° |
| 2026-04-24 21:28 | 29.43590 | -82.83103 | 33987 ft | 449 kts | 317° |
| 2026-04-24 21:28 | 29.48323 | -82.87822 | 33989 ft | 450 kts | 317° |
| 2026-04-24 21:29 | 29.53031 | -82.92524 | 33986 ft | 450 kts | 317° |
| 2026-04-24 21:29 | 29.57773 | -82.97266 | 33984 ft | 450 kts | 317° |
| 2026-04-24 21:30 | 29.62487 | -83.01986 | 33981 ft | 450 kts | 317° |
| 2026-04-24 21:30 | 29.67207 | -83.06719 | 33983 ft | 450 kts | 317° |
| 2026-04-24 21:31 | 29.71905 | -83.11457 | 33984 ft | 451 kts | 317° |
| 2026-04-24 21:31 | 29.76614 | -83.16203 | 33985 ft | 451 kts | 317° |
| 2026-04-24 21:32 | 29.81345 | -83.20968 | 33990 ft | 451 kts | 317° |
| 2026-04-24 21:32 | 29.86052 | -83.25712 | 33978 ft | 451 kts | 317° |
| 2026-04-24 21:33 | 29.90762 | -83.30464 | 33980 ft | 451 kts | 317° |
| 2026-04-24 21:33 | 29.95496 | -83.35247 | 33985 ft | 452 kts | 317° |
| 2026-04-24 21:34 | 30.00214 | -83.40020 | 33998 ft | 452 kts | 317° |
| 2026-04-24 21:34 | 30.04931 | -83.44799 | 34000 ft | 452 kts | 317° |
| 2026-04-24 21:35 | 30.09664 | -83.49600 | 34000 ft | 453 kts | 317° |
| 2026-04-24 21:35 | 30.14413 | -83.54424 | 33997 ft | 452 kts | 317° |
| 2026-04-24 21:36 | 30.19112 | -83.59203 | 33998 ft | 453 kts | 317° |
| 2026-04-24 21:36 | 30.23857 | -83.64035 | 33998 ft | 453 kts | 317° |
| 2026-04-24 21:37 | 30.28571 | -83.68843 | 33990 ft | 453 kts | 317° |
| 2026-04-24 21:37 | 30.33273 | -83.73663 | 33977 ft | 453 kts | 317° |
| 2026-04-24 21:38 | 30.38000 | -83.78515 | 33976 ft | 453 kts | 317° |